Time;durP1;ratioP1;P1;durP2;ratioP2;P2;SDS_P1;SDS_P2;PMS_P1;PMS_P2;Temp;Humidity;BMP_temperature;BMP_pressure;BME280_temperature;BME280_humidity;BME280_pressure;Samples;Min_cycle;Max_cycle;Signal;HPM_P1;HPM_P2
2021/06/11 00:01:20;;;;;;;6.70;5.15;;;18.30;72.10;;;;;;6306168;22;20440;-81
2021/06/11 00:03:46;;;;;;;8.15;5.82;;;18.30;72.00;;;;;;6305486;22;19995;-81
2021/06/11 00:06:12;;;;;;;7.50;4.30;;;18.30;72.00;;;;;;6304543;22;20006;-82
2021/06/11 00:08:37;;;;;;;5.43;4.53;;;18.30;72.00;;;;;;6305759;22;20070;-82
2021/06/11 00:11:03;;;;;;;6.30;4.78;;;18.20;71.70;;;;;;6306181;22;20096;-82
2021/06/11 00:13:29;;;;;;;7.03;4.57;;;18.20;71.70;;;;;;6305861;22;20008;-82
2021/06/11 00:15:55;;;;;;;6.50;4.35;;;18.20;71.50;;;;;;6278209;22;20079;-82
2021/06/11 00:18:20;;;;;;;6.28;4.93;;;18.20;71.50;;;;;;6279777;22;20027;-82
2021/06/11 00:20:46;;;;;;;7.25;4.25;;;18.20;71.50;;;;;;6279848;22;20082;-82
2021/06/11 00:23:12;;;;;;;6.57;4.65;;;18.20;71.40;;;;;;6306790;22;20003;-81
2021/06/11 00:25:38;;;;;;;6.18;4.95;;;18.10;71.40;;;;;;6279419;22;20014;-81
2021/06/11 00:28:04;;;;;;;5.28;4.72;;;18.10;71.20;;;;;;6307212;22;20010;-82
2021/06/11 00:30:32;;;;;;;4.95;4.45;;;18.10;71.30;;;;;;6278733;22;20054;-82
2021/06/11 00:32:59;;;;;;;5.90;5.30;;;18.00;71.30;;;;;;6277475;22;19999;-81
2021/06/11 00:35:25;;;;;;;4.80;4.25;;;17.90;71.40;;;;;;6306211;22;19991;-82
2021/06/11 00:37:50;;;;;;;5.25;3.83;;;17.90;71.80;;;;;;6277812;22;20369;-82
2021/06/11 00:40:17;;;;;;;6.50;5.57;;;17.90;71.60;;;;;;6305876;22;20006;-81
2021/06/11 00:42:43;;;;;;;7.53;5.40;;;17.80;71.50;;;;;;6305556;22;20507;-82
2021/06/11 00:45:10;;;;;;;5.28;4.30;;;17.80;71.60;;;;;;6278445;22;20019;-81
2021/06/11 00:47:36;;;;;;;4.07;3.67;;;17.80;71.40;;;;;;6278640;22;20003;-82
2021/06/11 00:50:03;;;;;;;4.32;3.88;;;17.70;71.50;;;;;;6278440;22;19999;-81
2021/06/11 00:52:32;;;;;;;8.55;3.88;;;17.50;71.70;;;;;;6305938;22;20030;-80
2021/06/11 00:54:58;;;;;;;4.95;4.07;;;17.50;72.10;;;;;;6306647;22;20453;-82
2021/06/11 00:57:24;;;;;;;7.25;3.97;;;17.60;72.10;;;;;;6306797;22;20080;-82
2021/06/11 00:59:51;;;;;;;8.55;3.72;;;17.70;71.80;;;;;;6306325;22;20003;-82
2021/06/11 01:02:16;;;;;;;5.28;4.57;;;17.70;71.50;;;;;;6306971;22;19999;-82
2021/06/11 01:04:42;;;;;;;5.28;3.88;;;17.60;71.50;;;;;;6306892;22;20010;-82
2021/06/11 01:07:08;;;;;;;5.22;3.97;;;17.60;71.60;;;;;;6279161;22;20003;-81
2021/06/11 01:09:38;;;;;;;4.68;3.85;;;17.60;71.50;;;;;;6279474;22;20027;-82
2021/06/11 01:12:07;;;;;;;5.10;4.60;;;17.60;71.70;;;;;;6306790;22;20445;-82
2021/06/11 01:14:33;;;;;;;6.78;4.63;;;17.60;71.70;;;;;;6306735;22;20359;-82
2021/06/11 01:17:00;;;;;;;5.75;4.78;;;17.60;71.60;;;;;;6308234;22;20009;-82
2021/06/11 01:19:32;;;;;;;4.53;3.60;;;17.60;71.30;;;;;;6307340;22;20078;-82
2021/06/11 01:22:23;;;;;;;6.28;3.80;;;17.70;71.50;;;;;;6279154;22;20007;-82
2021/06/11 01:25:41;;;;;;;3.60;3.25;;;17.70;71.30;;;;;;6307219;22;20545;-82
2021/06/11 01:28:09;;;;;;;3.67;3.38;;;17.70;71.10;;;;;;6217812;22;20098;-82
2021/06/11 01:30:36;;;;;;;9.43;4.32;;;17.70;70.90;;;;;;6279890;22;20006;-82
2021/06/11 01:33:03;;;;;;;4.13;3.67;;;17.70;71.00;;;;;;6279887;22;20400;-82
2021/06/11 01:35:38;;;;;;;6.78;3.70;;;17.70;71.00;;;;;;6279794;22;20217;-82
2021/06/11 01:38:04;;;;;;;9.75;5.97;;;17.60;70.90;;;;;;6279565;22;20035;-82
2021/06/11 01:40:34;;;;;;;7.60;4.50;;;17.60;71.10;;;;;;6307391;22;19999;-82
2021/06/11 01:43:01;;;;;;;9.07;4.50;;;17.70;71.10;;;;;;6280413;22;20007;-82
2021/06/11 01:45:28;;;;;;;8.00;6.70;;;17.60;70.90;;;;;;6307290;22;20011;-82
2021/06/11 01:47:55;;;;;;;6.88;4.38;;;17.60;71.10;;;;;;6307342;22;19999;-82
2021/06/11 01:50:36;;;;;;;4.35;3.95;;;17.60;71.30;;;;;;6280160;22;20025;-82
2021/06/11 01:53:04;;;;;;;8.48;3.85;;;17.50;71.00;;;;;;6279291;22;20089;-82
2021/06/11 01:55:31;;;;;;;6.80;4.75;;;17.50;71.10;;;;;;6279791;22;20014;-82
2021/06/11 01:58:00;;;;;;;7.38;5.15;;;17.50;71.20;;;;;;6278923;22;20011;-82
2021/06/11 02:00:27;;;;;;;6.55;5.05;;;17.50;71.30;;;;;;6279380;22;20007;-82
2021/06/11 02:02:53;;;;;;;5.63;4.45;;;17.40;71.30;;;;;;6280101;22;20025;-82
2021/06/11 02:05:21;;;;;;;7.95;4.47;;;17.40;71.40;;;;;;6307429;22;20062;-82
2021/06/11 02:07:47;;;;;;;5.30;4.20;;;17.30;71.20;;;;;;6279635;22;20003;-81
2021/06/11 02:10:17;;;;;;;4.93;4.32;;;17.30;71.40;;;;;;6280139;22;20042;-82
2021/06/11 02:12:44;;;;;;;6.55;4.60;;;17.30;71.60;;;;;;6307257;22;20434;-82
2021/06/11 02:15:12;;;;;;;4.15;3.60;;;17.30;71.50;;;;;;6280060;22;20011;-82
2021/06/11 02:17:46;;;;;;;4.93;4.50;;;17.30;71.60;;;;;;6307468;22;20070;-82
2021/06/11 02:20:14;;;;;;;6.97;3.92;;;17.30;71.80;;;;;;6307971;22;20406;-82
2021/06/11 02:22:44;;;;;;;4.82;4.10;;;17.20;71.70;;;;;;6281173;22;20011;-81
2021/06/11 02:25:13;;;;;;;7.28;4.85;;;17.30;71.50;;;;;;6281035;22;20026;-82
2021/06/11 02:27:40;;;;;;;5.30;4.03;;;17.30;71.50;;;;;;6307730;22;20341;-82
2021/06/11 02:30:08;;;;;;;6.75;3.45;;;17.30;71.50;;;;;;6307626;22;19995;-86
2021/06/11 02:32:35;;;;;;;4.15;3.75;;;17.20;71.50;;;;;;6307231;22;20425;-86
2021/06/11 02:35:06;;;;;;;4.80;4.25;;;17.20;71.30;;;;;;6279871;22;20420;-86
2021/06/11 02:37:32;;;;;;;7.63;4.07;;;17.20;71.20;;;;;;6280435;22;20429;-86
2021/06/11 02:39:58;;;;;;;4.45;3.17;;;17.20;71.10;;;;;;6308624;22;20062;-86
2021/06/11 02:42:26;;;;;;;7.60;3.70;;;17.20;71.00;;;;;;6280859;22;20038;-86
2021/06/11 02:44:54;;;;;;;4.15;3.28;;;17.20;70.80;;;;;;6281314;22;20100;-86
2021/06/11 02:47:46;;;;;;;4.93;3.80;;;17.20;70.60;;;;;;6281305;22;20004;-86
2021/06/11 02:50:19;;;;;;;4.95;4.20;;;17.20;70.50;;;;;;6308722;22;20078;-86
2021/06/11 02:52:52;;;;;;;6.38;4.78;;;17.10;70.80;;;;;;6281493;22;20345;-86
2021/06/11 02:55:19;;;;;;;;;;;17.10;71.10;;;;;;6282290;22;20418;-86
2021/06/11 02:58:06;;;;;;;4.07;3.67;;;17.00;71.00;;;;;;6280415;22;19906;-86
2021/06/11 03:00:32;;;;;;;9.88;4.20;;;17.00;71.30;;;;;;6280187;22;20007;-86
2021/06/11 03:03:25;;;;;;;5.45;3.58;;;16.90;71.30;;;;;;6281286;22;20086;-85
2021/06/11 03:05:54;;;;;;;5.82;4.00;;;17.00;71.30;;;;;;6309338;22;19999;-86
2021/06/11 03:08:25;;;;;;;4.57;3.90;;;17.00;70.90;;;;;;6281677;22;20392;-86
2021/06/11 03:10:54;;;;;;;11.57;4.30;;;17.00;71.10;;;;;;6309105;22;20015;-86
2021/06/11 03:13:22;;;;;;;5.25;4.38;;;17.00;71.10;;;;;;6280719;22;20065;-86
2021/06/11 03:15:50;;;;;;;7.97;4.82;;;17.00;71.30;;;;;;6280452;22;20329;-86
2021/06/11 03:18:38;;;;;;;7.80;4.05;;;17.00;71.50;;;;;;6307083;22;19999;-86
2021/06/11 03:21:27;;;;;;;5.28;4.25;;;17.00;71.40;;;;;;6308249;22;20082;-86
2021/06/11 03:24:09;;;;;;;7.65;4.50;;;16.90;71.50;;;;;;6280954;22;20438;-86
2021/06/11 03:26:43;;;;;;;6.28;3.92;;;16.90;71.80;;;;;;6279316;22;20003;-85
2021/06/11 03:29:12;;;;;;;8.48;4.22;;;16.90;71.60;;;;;;6280160;22;20086;-85
2021/06/11 03:31:55;;;;;;;7.13;4.00;;;17.00;71.50;;;;;;6280634;22;20011;-86
2021/06/11 03:34:23;;;;;;;;;;;17.00;71.50;;;;;;6308147;22;19996;-85
2021/06/11 03:36:52;;;;;;;5.13;3.10;;;17.10;71.20;;;;;;6280483;22;19973;-86
2021/06/11 03:39:29;;;;;;;3.60;3.30;;;17.10;71.00;;;;;;6307365;22;19996;-85
2021/06/11 03:41:56;;;;;;;4.13;3.20;;;17.10;71.10;;;;;;6280265;22;20010;-85
2021/06/11 03:44:22;;;;;;;4.60;3.55;;;17.00;70.80;;;;;;6280209;22;20013;-86
2021/06/11 03:46:50;;;;;;;3.50;3.00;;;16.90;70.60;;;;;;6309337;22;19992;-85
2021/06/11 03:49:19;;;;;;;5.13;3.60;;;16.90;71.20;;;;;;6280660;22;19999;-85
2021/06/11 03:51:47;;;;;;;4.07;3.35;;;17.00;70.50;;;;;;6307662;22;20003;-85
2021/06/11 03:54:15;;;;;;;5.97;3.20;;;16.90;70.40;;;;;;6280187;22;19999;-85
2021/06/11 03:56:43;;;;;;;4.60;3.33;;;17.00;70.40;;;;;;6306849;22;20025;-85
2021/06/11 03:59:09;;;;;;;7.47;3.63;;;17.00;70.40;;;;;;6307415;22;20000;-85
2021/06/11 04:01:40;;;;;;;6.10;3.75;;;17.10;70.40;;;;;;6307173;22;20388;-85
2021/06/11 04:04:07;;;;;;;4.45;3.65;;;17.10;70.70;;;;;;6280295;22;19999;-85
2021/06/11 04:06:39;;;;;;;5.63;4.68;;;17.00;71.20;;;;;;6279339;22;20086;-85
2021/06/11 04:09:07;;;;;;;6.30;4.18;;;17.10;71.50;;;;;;6279999;22;20094;-86
2021/06/11 04:11:41;;;;;;;6.22;5.05;;;17.10;71.60;;;;;;6307044;22;19995;-86
2021/06/11 04:14:07;;;;;;;9.77;6.10;;;17.10;71.90;;;;;;6280398;22;19999;-85
2021/06/11 04:16:41;;;;;;;10.68;6.80;;;17.20;72.00;;;;;;6279998;22;20433;-86
2021/06/11 04:19:15;;;;;;;10.43;6.50;;;17.20;72.10;;;;;;6280088;22;20003;-86
2021/06/11 04:21:42;;;;;;;8.13;6.10;;;17.20;72.60;;;;;;6280429;22;19999;-86
2021/06/11 04:24:09;;;;;;;4.20;3.80;;;17.20;72.80;;;;;;6279832;22;20442;-87
2021/06/11 04:26:40;;;;;;;7.20;5.00;;;17.10;72.60;;;;;;6278776;22;20421;-86
2021/06/11 04:29:11;;;;;;;4.43;3.90;;;17.20;72.40;;;;;;6279758;22;20006;-86
2021/06/11 04:31:38;;;;;;;6.28;3.92;;;17.20;71.90;;;;;;6279895;22;20499;-86
2021/06/11 04:34:04;;;;;;;4.38;3.67;;;17.20;71.70;;;;;;6307094;22;20060;-86
2021/06/11 04:36:30;;;;;;;7.25;4.18;;;17.30;71.80;;;;;;6307726;22;20003;-86
2021/06/11 04:39:02;;;;;;;5.57;3.92;;;17.30;71.80;;;;;;6281052;22;20050;-88
2021/06/11 04:41:29;;;;;;;7.47;3.97;;;17.30;71.90;;;;;;6281522;22;20084;-87
2021/06/11 04:43:59;;;;;;;9.35;4.68;;;17.30;71.90;;;;;;6307120;22;20560;-86
2021/06/11 04:46:25;;;;;;;7.05;4.60;;;17.30;72.00;;;;;;6279772;22;20047;-87
2021/06/11 04:48:51;;;;;;;7.57;4.13;;;17.30;72.00;;;;;;6279392;22;20060;-87
2021/06/11 04:51:17;;;;;;;7.10;4.25;;;17.30;72.00;;;;;;6279975;22;20361;-86
2021/06/11 04:53:43;;;;;;;5.05;4.30;;;17.20;72.20;;;;;;6306853;22;19996;-86
2021/06/11 04:56:08;;;;;;;5.53;4.97;;;17.30;72.20;;;;;;6307329;22;20082;-87
2021/06/11 04:58:39;;;;;;;6.18;5.30;;;17.30;72.60;;;;;;6280054;22;20007;-86
2021/06/11 05:01:06;;;;;;;10.13;6.03;;;17.30;73.00;;;;;;6279265;22;20003;-86
2021/06/11 05:03:32;;;;;;;9.65;6.40;;;17.30;73.10;;;;;;6279764;22;20042;-86
2021/06/11 05:05:59;;;;;;;10.68;6.68;;;17.40;73.20;;;;;;6279784;22;20011;-86
2021/06/11 05:08:25;;;;;;;10.95;6.22;;;17.30;73.30;;;;;;6279843;22;20061;-86
2021/06/11 05:10:51;;;;;;;8.32;6.85;;;17.40;73.50;;;;;;6278349;22;20003;-86
2021/06/11 05:13:17;;;;;;;6.10;4.65;;;17.40;73.60;;;;;;6305991;22;19999;-85
2021/06/11 05:15:43;;;;;;;9.18;6.13;;;17.40;73.40;;;;;;6305844;22;20008;-86
2021/06/11 05:18:09;;;;;;;6.63;5.90;;;17.40;73.40;;;;;;6305206;22;20010;-86
2021/06/11 05:20:38;;;;;;;6.70;6.00;;;17.40;73.50;;;;;;6278716;22;19999;-86
2021/06/11 05:23:04;;;;;;;8.38;6.10;;;17.50;73.60;;;;;;6306156;22;20006;-87
2021/06/11 05:25:30;;;;;;;8.75;6.47;;;17.50;73.50;;;;;;6278819;22;20015;-86
2021/06/11 05:27:55;;;;;;;8.32;5.78;;;17.50;73.60;;;;;;6305490;22;20003;-86
2021/06/11 05:30:25;;;;;;;6.75;5.20;;;17.50;73.80;;;;;;6277409;22;19999;-86
2021/06/11 05:32:51;;;;;;;9.13;5.75;;;17.50;73.60;;;;;;6252423;22;20053;-86
2021/06/11 05:35:17;;;;;;;7.30;5.15;;;17.50;73.50;;;;;;6305363;22;19999;-86
2021/06/11 05:37:43;;;;;;;12.43;5.32;;;17.60;73.50;;;;;;6278460;22;20007;-86
2021/06/11 05:40:09;;;;;;;9.07;6.32;;;17.60;73.40;;;;;;6278273;22;20015;-86
2021/06/11 05:42:35;;;;;;;6.78;5.53;;;17.60;73.20;;;;;;6277678;22;20430;-86
2021/06/11 05:45:01;;;;;;;6.47;4.80;;;17.60;73.00;;;;;;6278572;22;20015;-86
2021/06/11 05:47:27;;;;;;;6.85;5.18;;;17.60;72.80;;;;;;6305665;22;20394;-86
2021/06/11 05:49:52;;;;;;;7.72;4.82;;;17.60;72.80;;;;;;6305968;22;20434;-86
2021/06/11 05:52:27;;;;;;;6.35;4.88;;;17.60;72.80;;;;;;6278598;22;20082;-86
2021/06/11 05:54:53;;;;;;;7.20;4.68;;;17.60;73.30;;;;;;6279408;22;20003;-86
2021/06/11 05:57:19;;;;;;;7.35;4.20;;;17.60;72.70;;;;;;6279500;22;20007;-86
2021/06/11 05:59:44;;;;;;;8.48;4.53;;;17.70;72.60;;;;;;6305180;22;20054;-86
2021/06/11 06:02:10;;;;;;;5.60;4.43;;;17.70;72.00;;;;;;6278840;22;20014;-86
2021/06/11 06:04:36;;;;;;;6.65;4.45;;;17.60;72.20;;;;;;6280691;22;20011;-86
2021/06/11 06:07:02;;;;;;;5.63;5.07;;;17.50;72.90;;;;;;6307955;22;20006;-86
2021/06/11 06:09:27;;;;;;;7.93;5.90;;;17.50;73.30;;;;;;6279750;22;20433;-86
2021/06/11 06:11:53;;;;;;;7.22;6.45;;;17.50;73.60;;;;;;6307820;22;20334;-86
2021/06/11 06:14:19;;;;;;;10.05;6.72;;;17.60;74.10;;;;;;6280423;22;20007;-86
2021/06/11 06:16:45;;;;;;;10.82;6.55;;;17.60;74.50;;;;;;6307554;22;20002;-85
2021/06/11 06:19:11;;;;;;;7.30;6.57;;;17.60;74.90;;;;;;6280024;22;19999;-86
2021/06/11 06:21:36;;;;;;;9.63;6.00;;;17.60;75.20;;;;;;6281453;22;20418;-86
2021/06/11 06:24:02;;;;;;;8.32;6.13;;;17.60;75.10;;;;;;6308525;22;20429;-86
2021/06/11 06:26:28;;;;;;;7.82;5.50;;;17.60;74.90;;;;;;6280917;22;20003;-86
2021/06/11 06:28:55;;;;;;;10.75;6.95;;;17.70;74.80;;;;;;6280246;22;20094;-86
2021/06/11 06:31:22;;;;;;;7.38;6.05;;;17.70;74.80;;;;;;6308056;22;20080;-85
2021/06/11 06:33:48;;;;;;;8.57;6.32;;;17.70;74.70;;;;;;6280368;22;19999;-86
2021/06/11 06:36:13;;;;;;;15.13;6.75;;;17.70;74.60;;;;;;6307812;22;20007;-86
2021/06/11 06:38:39;;;;;;;7.28;6.20;;;17.80;74.60;;;;;;6307735;22;20010;-86
2021/06/11 06:41:06;;;;;;;7.90;6.65;;;17.80;74.60;;;;;;6307300;22;19999;-86
2021/06/11 06:43:34;;;;;;;9.35;6.75;;;17.80;74.60;;;;;;6307482;22;20082;-85
2021/06/11 06:46:01;;;;;;;12.15;7.53;;;17.90;74.80;;;;;;6280129;22;20361;-86
2021/06/11 06:48:27;;;;;;;8.57;6.82;;;17.90;74.90;;;;;;6280537;22;20032;-85
2021/06/11 06:50:57;;;;;;;10.27;7.68;;;17.90;74.70;;;;;;6280958;22;20000;-86
2021/06/11 06:53:22;;;;;;;10.20;8.48;;;18.00;74.80;;;;;;6307740;22;20329;-86
2021/06/11 06:55:48;;;;;;;13.27;8.13;;;18.00;74.80;;;;;;6307163;22;20025;-86
2021/06/11 06:58:14;;;;;;;12.43;8.38;;;18.00;74.80;;;;;;6280109;22;20033;-86
2021/06/11 07:00:40;;;;;;;11.65;8.05;;;18.00;75.40;;;;;;6307023;22;20027;-85
2021/06/11 07:03:05;;;;;;;9.95;7.13;;;18.00;74.90;;;;;;6279311;22;20088;-85
2021/06/11 07:05:31;;;;;;;10.50;7.97;;;18.00;74.70;;;;;;6307546;22;20027;-86
2021/06/11 07:07:58;;;;;;;9.27;7.97;;;18.00;74.80;;;;;;6279989;22;20003;-85
2021/06/11 07:10:23;;;;;;;7.72;6.75;;;18.00;74.70;;;;;;6307946;22;20425;-86
2021/06/11 07:12:49;;;;;;;8.50;6.65;;;18.00;74.60;;;;;;6280284;22;20008;-85
2021/06/11 07:15:15;;;;;;;13.55;7.40;;;18.00;74.80;;;;;;6280003;22;20056;-86
2021/06/11 07:17:42;;;;;;;10.45;6.57;;;18.00;74.70;;;;;;6280205;22;20038;-86
2021/06/11 07:20:09;;;;;;;7.43;6.20;;;18.00;74.70;;;;;;6279982;22;20012;-85
2021/06/11 07:22:37;;;;;;;7.93;6.50;;;18.00;74.80;;;;;;6279402;22;20003;-85
2021/06/11 07:25:06;;;;;;;11.30;7.38;;;18.00;74.90;;;;;;6307047;22;20011;-85
2021/06/11 07:27:33;;;;;;;7.78;6.75;;;18.00;75.10;;;;;;6279782;22;20003;-85
2021/06/11 07:30:01;;;;;;;10.05;8.38;;;18.00;75.30;;;;;;6279736;22;20445;-85
2021/06/11 07:32:27;;;;;;;7.72;6.30;;;18.00;75.50;;;;;;6277946;22;20094;-85
2021/06/11 07:34:53;;;;;;;9.00;6.13;;;18.00;75.70;;;;;;6279054;22;20039;-85
2021/06/11 07:37:19;;;;;;;8.70;6.63;;;18.10;75.60;;;;;;6306905;22;20003;-86
2021/06/11 07:39:44;;;;;;;7.80;6.72;;;18.10;75.70;;;;;;6306579;22;20121;-85
2021/06/11 07:42:12;;;;;;;8.50;5.15;;;18.20;75.50;;;;;;6306736;22;20006;-86
2021/06/11 07:44:38;;;;;;;9.82;5.32;;;18.20;75.00;;;;;;6317388;22;20448;-85
2021/06/11 07:47:04;;;;;;;7.43;5.63;;;18.20;74.90;;;;;;6280234;22;20007;-85
2021/06/11 07:49:30;;;;;;;6.97;5.13;;;18.30;75.10;;;;;;6279961;22;19999;-85
2021/06/11 07:51:56;;;;;;;6.03;5.43;;;18.30;74.80;;;;;;6279974;22;20027;-85
2021/06/11 07:54:22;;;;;;;9.45;8.35;;;18.40;74.90;;;;;;6279673;22;20458;-85
2021/06/11 07:56:47;;;;;;;9.32;8.35;;;18.50;75.10;;;;;;6280804;22;20004;-85
2021/06/11 07:59:15;;;;;;;12.77;8.55;;;18.50;75.00;;;;;;6281344;22;20011;-86
2021/06/11 08:01:40;;;;;;;12.07;9.02;;;18.50;75.10;;;;;;6306918;22;20460;-85
2021/06/11 08:04:06;;;;;;;12.20;9.93;;;18.70;75.30;;;;;;6307522;22;19995;-85
2021/06/11 08:06:32;;;;;;;14.38;10.02;;;18.70;75.30;;;;;;6307334;22;20334;-85
2021/06/11 08:08:58;;;;;;;11.55;10.35;;;18.80;75.40;;;;;;6307056;22;20007;-85
2021/06/11 08:11:23;;;;;;;16.08;9.88;;;18.90;75.50;;;;;;6280045;22;19999;-85
2021/06/11 08:13:49;;;;;;;14.73;10.02;;;18.90;75.50;;;;;;6307443;22;20003;-86
2021/06/11 08:16:15;;;;;;;14.10;9.77;;;19.00;75.40;;;;;;6279827;22;20000;-85
2021/06/11 08:18:41;;;;;;;14.73;9.57;;;19.00;75.30;;;;;;6307670;22;20003;-86
2021/06/11 08:21:06;;;;;;;10.75;8.95;;;19.10;75.20;;;;;;6279867;22;20011;-85
2021/06/11 08:23:32;;;;;;;11.25;9.40;;;19.20;75.20;;;;;;6279705;22;20003;-85
2021/06/11 08:25:58;;;;;;;10.73;7.88;;;19.40;75.20;;;;;;6279838;22;20465;-85
2021/06/11 08:28:24;;;;;;;9.82;7.90;;;19.50;75.20;;;;;;6279546;22;20311;-85
2021/06/11 08:30:50;;;;;;;7.60;6.80;;;19.60;74.60;;;;;;6306820;22;20002;-85
2021/06/11 08:33:15;;;;;;;9.02;7.15;;;19.60;74.30;;;;;;6279782;22;19999;-85
2021/06/11 08:35:41;;;;;;;9.77;7.30;;;19.60;74.20;;;;;;6307140;22;20044;-85
2021/06/11 08:38:07;;;;;;;9.82;7.53;;;19.60;73.70;;;;;;6307152;22;20003;-85
2021/06/11 08:40:33;;;;;;;9.93;7.35;;;19.50;73.20;;;;;;6279788;22;20074;-86
2021/06/11 08:42:59;;;;;;;9.02;6.78;;;19.50;72.90;;;;;;6279783;22;20013;-85
2021/06/11 08:45:25;;;;;;;14.45;7.85;;;19.40;73.00;;;;;;6278932;22;20512;-86
2021/06/11 08:47:53;;;;;;;8.25;7.43;;;19.40;73.20;;;;;;6307006;22;20003;-85
2021/06/11 08:50:32;;;;;;;12.30;7.78;;;19.40;73.20;;;;;;6279980;22;20011;-85
2021/06/11 08:52:59;;;;;;;11.38;7.80;;;19.40;72.80;;;;;;6279866;22;20492;-85
2021/06/11 08:55:26;;;;;;;12.00;8.50;;;19.40;72.80;;;;;;6307407;22;20440;-85
2021/06/11 08:57:52;;;;;;;10.68;8.90;;;19.40;72.80;;;;;;6279693;22;20006;-86
2021/06/11 09:00:19;;;;;;;11.30;8.48;;;19.40;72.50;;;;;;6307434;22;20030;-85
2021/06/11 09:03:25;;;;;;;9.70;7.88;;;19.40;72.70;;;;;;6279666;22;20027;-85
2021/06/11 09:06:00;;;;;;;8.43;6.80;;;19.40;72.70;;;;;;6279637;22;20007;-85
2021/06/11 09:08:28;;;;;;;11.50;8.27;;;19.40;72.30;;;;;;6305843;22;20006;-85
2021/06/11 09:11:20;;;;;;;10.55;7.40;;;19.40;72.20;;;;;;6279813;22;20449;-85
2021/06/11 09:13:51;;;;;;;11.95;7.80;;;19.40;71.80;;;;;;6279259;22;20477;-85
2021/06/11 09:16:25;;;;;;;8.90;8.00;;;19.40;72.10;;;;;;6306435;22;19999;-85
2021/06/11 09:18:56;;;;;;;10.07;7.65;;;19.40;72.80;;;;;;6278831;22;20391;-85
2021/06/11 09:21:25;;;;;;;10.20;8.02;;;19.40;73.20;;;;;;6278986;22;20031;-85
2021/06/11 09:24:15;;;;;;;13.25;8.27;;;19.40;73.10;;;;;;6306545;22;20053;-85
2021/06/11 09:26:41;;;;;;;7.70;6.90;;;19.50;73.60;;;;;;6307294;22;19999;-85
2021/06/11 09:29:21;;;;;;;9.77;8.25;;;19.50;73.40;;;;;;6279196;22;20030;-85
2021/06/11 09:31:47;;;;;;;11.23;8.48;;;19.50;73.40;;;;;;6306825;22;19995;-85
2021/06/11 09:34:25;;;;;;;16.98;9.75;;;19.50;73.30;;;;;;6279346;22;20000;-85
2021/06/11 09:37:25;;;;;;;11.38;9.13;;;19.50;73.70;;;;;;6281458;22;20445;-85
2021/06/11 09:39:55;;;;;;;16.10;10.70;;;19.60;73.80;;;;;;6281844;22;19999;-85
2021/06/11 09:42:23;;;;;;;15.98;10.77;;;19.60;73.40;;;;;;6307831;22;19996;-85
2021/06/11 09:44:59;;;;;;;12.65;10.15;;;19.60;73.40;;;;;;6280650;22;20357;-85
2021/06/11 09:47:41;;;;;;;11.57;9.25;;;19.70;73.80;;;;;;6280991;22;20043;-86
2021/06/11 09:50:10;;;;;;;10.95;7.88;;;19.80;73.80;;;;;;6308852;22;19998;-85
2021/06/11 09:52:55;;;;;;;9.95;8.05;;;20.10;73.10;;;;;;6281473;22;20058;-85
2021/06/11 09:55:59;;;;;;;9.57;5.80;;;20.40;72.30;;;;;;6281246;22;19999;-85
2021/06/11 09:58:32;;;;;;;8.90;6.70;;;20.50;71.40;;;;;;6223745;22;20003;-85
2021/06/11 10:01:00;;;;;;;8.95;6.72;;;20.70;70.50;;;;;;6308676;22;20078;-85
2021/06/11 10:03:31;;;;;;;7.97;6.10;;;20.90;69.00;;;;;;6281247;22;20031;-85
2021/06/11 10:06:00;;;;;;;8.70;6.60;;;21.10;68.80;;;;;;6280861;22;20002;-85
2021/06/11 10:08:26;;;;;;;6.60;5.90;;;21.30;69.00;;;;;;6281224;22;20011;-86
2021/06/11 10:10:55;;;;;;;9.05;7.15;;;21.40;68.10;;;;;;6280944;22;20027;-86
2021/06/11 10:13:22;;;;;;;13.65;10.13;;;21.50;67.80;;;;;;6308049;22;19995;-86
2021/06/11 10:15:54;;;;;;;7.03;5.43;;;21.60;67.40;;;;;;6281047;22;20023;-85
2021/06/11 10:18:21;;;;;;;5.70;5.20;;;21.70;66.70;;;;;;6308659;22;20434;-86
2021/06/11 10:20:48;;;;;;;10.18;5.20;;;21.70;66.50;;;;;;6281317;22;20010;-85
2021/06/11 10:23:16;;;;;;;6.15;5.05;;;21.60;65.40;;;;;;6280963;22;20016;-86
2021/06/11 10:25:44;;;;;;;7.28;4.05;;;21.50;65.00;;;;;;6308609;22;19999;-86
2021/06/11 10:28:17;;;;;;;8.75;4.95;;;21.40;65.10;;;;;;6280505;22;20090;-85
2021/06/11 10:30:44;;;;;;;4.72;3.60;;;21.30;64.10;;;;;;6308114;22;20333;-86
2021/06/11 10:33:10;;;;;;;5.30;3.88;;;21.30;63.50;;;;;;6280445;22;20441;-85
2021/06/11 10:35:37;;;;;;;4.35;3.90;;;21.20;63.30;;;;;;6280432;22;20029;-85
2021/06/11 10:38:03;;;;;;;5.57;3.45;;;21.20;62.90;;;;;;6307967;22;20003;-85
2021/06/11 10:40:39;;;;;;;4.93;4.43;;;21.10;62.60;;;;;;6280931;22;20349;-86
2021/06/11 10:43:25;;;;;;;6.20;3.83;;;21.20;62.50;;;;;;6308172;22;20003;-86
2021/06/11 10:45:53;;;;;;;6.05;3.83;;;21.20;62.30;;;;;;6280511;22;20124;-86
2021/06/11 10:48:19;;;;;;;8.82;4.78;;;21.10;62.20;;;;;;6308041;22;20031;-87
2021/06/11 10:50:45;;;;;;;4.45;3.25;;;21.30;62.00;;;;;;6280688;22;20003;-87
2021/06/11 10:53:15;;;;;;;8.95;5.15;;;21.50;61.40;;;;;;6308908;22;20000;-86
2021/06/11 10:55:48;;;;;;;13.55;7.40;;;21.70;61.20;;;;;;6308628;22;20002;-87
2021/06/11 10:58:14;;;;;;;11.05;8.02;;;21.70;61.30;;;;;;6308919;22;20003;-86
2021/06/11 11:00:41;;;;;;;11.02;6.43;;;21.70;61.00;;;;;;6281142;22;20007;-86
2021/06/11 11:03:08;;;;;;;5.72;4.60;;;21.60;61.20;;;;;;6308790;22;20022;-86
2021/06/11 11:05:41;;;;;;;14.95;4.25;;;21.50;61.70;;;;;;6308334;22;20007;-86
2021/06/11 11:08:08;;;;;;;6.88;4.50;;;21.50;62.40;;;;;;6280330;22;20003;-88
2021/06/11 11:10:36;;;;;;;4.97;3.03;;;21.40;62.20;;;;;;6286289;22;20003;-87
2021/06/11 11:13:07;;;;;;;4.93;3.10;;;21.30;61.80;;;;;;6287263;22;20437;-87
2021/06/11 11:15:38;;;;;;;7.22;4.95;;;21.20;62.70;;;;;;6281577;22;20007;-87
2021/06/11 11:18:06;;;;;;;5.95;3.72;;;21.20;62.50;;;;;;6280425;22;20449;-88
2021/06/11 11:20:34;;;;;;;5.68;3.55;;;21.20;62.80;;;;;;6280550;22;20315;-88
2021/06/11 11:23:03;;;;;;;9.20;4.55;;;21.10;62.70;;;;;;6307613;22;20003;-88
2021/06/11 11:25:29;;;;;;;5.05;4.15;;;21.10;63.10;;;;;;6308061;22;20026;-87
2021/06/11 11:27:58;;;;;;;4.22;3.67;;;21.10;62.50;;;;;;6307562;22;20362;-87
2021/06/11 11:30:26;;;;;;;4.22;3.83;;;21.10;62.80;;;;;;6280171;22;20004;-87
2021/06/11 11:32:52;;;;;;;6.05;4.00;;;21.20;62.70;;;;;;6280539;22;20429;-87
2021/06/11 11:35:19;;;;;;;4.60;3.70;;;21.30;62.90;;;;;;6280058;22;20338;-87
2021/06/11 11:37:48;;;;;;;4.28;3.83;;;21.50;62.90;;;;;;6307647;22;20010;-87
2021/06/11 11:40:15;;;;;;;3.85;3.55;;;21.60;62.50;;;;;;6279974;22;20007;-87
2021/06/11 11:42:41;;;;;;;4.30;3.90;;;21.60;62.00;;;;;;6280090;22;20011;-87
2021/06/11 11:45:07;;;;;;;3.45;3.10;;;21.70;61.40;;;;;;6279765;22;20027;-88
2021/06/11 11:47:33;;;;;;;5.55;3.45;;;21.90;60.80;;;;;;6307463;22;20394;-87
2021/06/11 11:49:59;;;;;;;6.03;4.00;;;22.10;60.60;;;;;;6280083;22;20010;-87
2021/06/11 11:52:24;;;;;;;7.28;3.60;;;22.20;60.80;;;;;;6279666;22;20068;-87
2021/06/11 11:54:50;;;;;;;4.85;4.20;;;22.30;60.80;;;;;;6307091;22;20000;-88
2021/06/11 11:57:16;;;;;;;6.18;3.45;;;22.30;60.20;;;;;;6279729;22;20350;-87
2021/06/11 11:59:42;;;;;;;9.50;4.22;;;22.30;60.00;;;;;;6307734;22;19999;-88
2021/06/11 12:02:08;;;;;;;4.20;3.58;;;22.60;60.50;;;;;;6279139;22;20433;-87
2021/06/11 12:04:34;;;;;;;3.90;3.20;;;22.80;59.70;;;;;;6307081;22;20078;-87
2021/06/11 12:07:00;;;;;;;3.97;3.38;;;23.00;59.50;;;;;;6279437;22;20038;-87
2021/06/11 12:09:26;;;;;;;5.13;3.92;;;23.10;59.50;;;;;;6279478;22;20341;-87
2021/06/11 12:11:52;;;;;;;4.18;3.78;;;23.20;59.00;;;;;;6278333;22;20088;-87
2021/06/11 12:14:18;;;;;;;6.03;3.20;;;23.20;58.70;;;;;;6279416;22;20034;-88
2021/06/11 12:16:44;;;;;;;6.35;3.95;;;23.20;58.60;;;;;;6307112;22;20445;-87
2021/06/11 12:19:10;;;;;;;5.82;4.18;;;23.20;58.60;;;;;;6279870;22;20380;-86
2021/06/11 12:21:35;;;;;;;7.93;4.07;;;23.20;58.30;;;;;;6279860;22;20326;-87
2021/06/11 12:24:02;;;;;;;6.80;3.60;;;23.10;58.20;;;;;;6279995;22;20003;-87
2021/06/11 12:26:28;;;;;;;3.92;3.15;;;23.10;57.50;;;;;;6280027;22;20007;-86
2021/06/11 12:28:54;;;;;;;7.07;4.30;;;23.00;57.60;;;;;;6279884;22;20019;-88
2021/06/11 12:31:20;;;;;;;8.48;3.38;;;22.90;57.20;;;;;;6279962;22;20007;-87
2021/06/11 12:33:46;;;;;;;9.57;4.18;;;22.90;57.20;;;;;;6278507;22;20003;-87
2021/06/11 12:36:12;;;;;;;7.13;4.00;;;22.80;57.20;;;;;;6279522;22;20003;-87
2021/06/11 12:38:38;;;;;;;5.35;4.53;;;22.80;57.80;;;;;;6307106;22;20459;-87
2021/06/11 12:41:06;;;;;;;4.28;3.53;;;22.80;56.80;;;;;;6307247;22;20026;-87
2021/06/11 12:46:22;;;;;;;6.00;3.33;;;22.80;56.90;;;;;;6308521;22;20022;-87
2021/06/11 12:48:48;;;;;;;6.03;3.70;;;22.70;57.10;;;;;;6280016;22;20417;-87
2021/06/11 12:51:14;;;;;;;4.13;3.50;;;22.70;57.20;;;;;;6280200;22;19999;-86
2021/06/11 12:53:40;;;;;;;3.33;3.00;;;22.80;57.00;;;;;;6279509;22;20026;-87
2021/06/11 12:56:06;;;;;;;3.28;2.97;;;22.80;57.30;;;;;;6310444;22;20048;-87